Time;durP1;ratioP1;P1;durP2;ratioP2;P2;SDS_P1;SDS_P2;PMS_P1;PMS_P2;Temp;Humidity;BMP_temperature;BMP_pressure;BME280_temperature;BME280_humidity;BME280_pressure;Samples;Min_cycle;Max_cycle;Signal;HPM_P1;HPM_P2
2023/03/28 00:01:32;;;;;;;9.40;3.75;;;;;;;;;;5114359;28;20100;-77
2023/03/28 00:03:58;;;;;;;10.18;4.13;;;;;;;;;;5097443;28;20044;-77
2023/03/28 00:06:26;;;;;;;8.63;3.47;;;;;;;;;;5113511;28;20080;-78
2023/03/28 00:08:52;;;;;;;12.85;4.03;;;;;;;;;;5107181;28;20127;-76
2023/03/28 00:11:19;;;;;;;9.13;4.07;;;;;;;;;;5114612;28;20074;-77
2023/03/28 00:13:52;;;;;;;10.20;3.40;;;;;;;;;;5112825;28;20054;-76
2023/03/28 00:16:18;;;;;;;6.38;3.05;;;;;;;;;;5102371;28;20024;-77
2023/03/28 00:18:43;;;;;;;6.35;3.30;;;;;;;;;;5099611;28;20047;-78
2023/03/28 00:21:28;;;;;;;16.33;3.92;;;;;;;;;;5107931;28;20110;-77
2023/03/28 00:23:55;;;;;;;7.38;3.33;;;;;;;;;;5114293;28;20047;-76
2023/03/28 00:26:23;;;;;;;10.13;2.67;;;;;;;;;;5115027;28;20098;-76
2023/03/28 00:28:50;;;;;;;12.25;3.15;;;;;;;;;;5113599;28;20448;-76
2023/03/28 00:31:16;;;;;;;8.85;3.03;;;;;;;;;;5113857;28;20376;-76
2023/03/28 00:33:42;;;;;;;9.85;3.50;;;;;;;;;;5103745;28;20039;-76
2023/03/28 00:36:13;;;;;;;11.77;3.17;;;;;;;;;;5114547;28;20036;-76
2023/03/28 00:38:39;;;;;;;6.30;3.17;;;;;;;;;;5113560;28;20059;-76
2023/03/28 00:41:08;;;;;;;7.85;2.75;;;;;;;;;;5105652;28;20031;-77
2023/03/28 00:43:42;;;;;;;11.85;3.13;;;;;;;;;;5109170;28;20040;-77
2023/03/28 00:46:17;;;;;;;9.68;2.75;;;;;;;;;;5111645;28;20078;-77
2023/03/28 00:48:57;;;;;;;8.75;2.65;;;;;;;;;;5114080;28;20051;-76
2023/03/28 00:51:25;;;;;;;7.50;2.80;;;;;;;;;;5109629;28;20110;-77
2023/03/28 00:53:52;;;;;;;5.60;2.50;;;;;;;;;;5102566;28;20483;-78
2023/03/28 00:56:20;;;;;;;8.73;2.20;;;;;;;;;;5113730;28;20067;-77
2023/03/28 00:58:46;;;;;;;11.88;2.78;;;;;;;;;;5115157;28;20083;-76
2023/03/28 01:01:14;;;;;;;7.78;2.33;;;;;;;;;;5113706;28;20100;-76
2023/03/28 01:03:45;;;;;;;13.32;2.53;;;;;;;;;;5108144;28;20039;-77
2023/03/28 01:06:13;;;;;;;7.43;2.00;;;;;;;;;;5113905;28;20126;-77
2023/03/28 01:08:40;;;;;;;16.35;2.80;;;;;;;;;;5110466;28;20108;-77
2023/03/28 01:11:06;;;;;;;8.48;2.47;;;;;;;;;;5113884;28;20032;-77
2023/03/28 01:13:36;;;;;;;6.57;2.38;;;;;;;;;;5113117;28;20062;-78
2023/03/28 01:16:02;;;;;;;12.70;2.33;;;;;;;;;;5112694;28;20038;-77
2023/03/28 01:18:29;;;;;;;5.40;2.40;;;;;;;;;;5106538;28;20074;-77
2023/03/28 01:21:27;;;;;;;8.88;2.42;;;;;;;;;;5112960;28;20360;-76
2023/03/28 01:24:11;;;;;;;5.43;2.33;;;;;;;;;;5113132;28;20119;-77
2023/03/28 01:26:52;;;;;;;7.20;2.53;;;;;;;;;;5100983;28;20143;-76
2023/03/28 01:29:35;;;;;;;8.35;2.40;;;;;;;;;;5112925;28;20434;-77
2023/03/28 01:32:23;;;;;;;5.40;2.05;;;;;;;;;;5112914;28;20035;-76
2023/03/28 01:34:54;;;;;;;9.07;2.50;;;;;;;;;;5106594;28;20044;-76
2023/03/28 01:37:31;;;;;;;7.05;2.10;;;;;;;;;;5107828;28;20046;-77
2023/03/28 01:40:30;;;;;;;7.65;2.22;;;;;;;;;;5103949;28;20046;-77
2023/03/28 01:43:12;;;;;;;7.78;2.22;;;;;;;;;;5110649;28;20040;-77
2023/03/28 01:45:55;;;;;;;8.35;2.70;;;;;;;;;;5112261;28;20044;-76
2023/03/28 01:48:43;;;;;;;5.15;2.40;;;;;;;;;;5113939;28;20038;-77
2023/03/28 01:51:19;;;;;;;8.48;2.30;;;;;;;;;;5114111;28;20039;-77
2023/03/28 01:54:17;;;;;;;11.10;1.85;;;;;;;;;;5108205;28;20023;-77
2023/03/28 01:56:57;;;;;;;7.93;2.28;;;;;;;;;;5096161;28;20113;-77
2023/03/28 01:59:43;;;;;;;7.03;1.92;;;;;;;;;;5108114;28;20496;-76
2023/03/28 02:02:20;;;;;;;7.22;2.05;;;;;;;;;;5105506;28;20035;-77
2023/03/28 02:04:47;;;;;;;9.52;2.47;;;;;;;;;;5111728;28;20035;-77
2023/03/28 02:07:15;;;;;;;8.00;2.20;;;;;;;;;;5113425;28;20120;-76
2023/03/28 02:09:42;;;;;;;6.60;2.22;;;;;;;;;;5112294;28;20537;-76
2023/03/28 02:12:12;;;;;;;6.28;1.83;;;;;;;;;;5106129;28;20035;-77
2023/03/28 02:14:40;;;;;;;12.38;2.13;;;;;;;;;;5112850;28;20035;-76
2023/03/28 02:17:14;;;;;;;9.05;1.95;;;;;;;;;;5111996;28;20036;-77
2023/03/28 02:19:42;;;;;;;6.95;1.75;;;;;;;;;;5111639;28;20039;-78
2023/03/28 02:22:36;;;;;;;7.40;2.08;;;;;;;;;;5108432;28;20065;-77
2023/03/28 02:25:01;;;;;;;3.88;1.70;;;;;;;;;;5106619;28;20082;-76
2023/03/28 02:27:27;;;;;;;7.70;1.83;;;;;;;;;;5112342;28;20059;-76
2023/03/28 02:29:53;;;;;;;5.50;2.15;;;;;;;;;;5111813;28;20039;-76
2023/03/28 02:32:20;;;;;;;7.55;1.95;;;;;;;;;;5112630;28;20367;-76
2023/03/28 02:34:47;;;;;;;5.20;1.95;;;;;;;;;;5112073;28;20445;-76
2023/03/28 02:37:31;;;;;;;6.22;2.13;;;;;;;;;;5110349;28;20032;-76
2023/03/28 02:40:27;;;;;;;7.10;1.70;;;;;;;;;;5099877;28;20036;-76
2023/03/28 02:43:14;;;;;;;6.57;2.05;;;;;;;;;;5103387;28;20039;-77
2023/03/28 02:45:49;;;;;;;8.45;2.25;;;;;;;;;;5106311;28;20612;-76
2023/03/28 02:48:33;;;;;;;8.75;2.33;;;;;;;;;;5104600;28;20044;-76
2023/03/28 02:51:28;;;;;;;8.75;2.15;;;;;;;;;;5100295;28;20096;-76
2023/03/28 02:54:10;;;;;;;7.03;1.90;;;;;;;;;;5099407;28;20123;-78
2023/03/28 02:56:49;;;;;;;4.13;1.75;;;;;;;;;;5105816;28;20108;-76
2023/03/28 02:59:25;;;;;;;9.25;1.92;;;;;;;;;;5112830;28;20074;-76
2023/03/28 03:01:50;;;;;;;5.85;2.10;;;;;;;;;;5115490;28;20505;-76
2023/03/28 03:04:16;;;;;;;9.98;2.25;;;;;;;;;;5117119;28;20031;-77
2023/03/28 03:06:44;;;;;;;5.88;1.70;;;;;;;;;;5117029;28;20432;-76
2023/03/28 03:09:10;;;;;;;4.60;1.65;;;;;;;;;;5102870;28;20158;-76
2023/03/28 03:11:36;;;;;;;5.03;1.80;;;;;;;;;;5115725;28;20024;-78
2023/03/28 03:14:01;;;;;;;7.72;1.88;;;;;;;;;;5113028;28;20046;-76
2023/03/28 03:16:28;;;;;;;8.63;2.00;;;;;;;;;;5116861;28;20530;-77
2023/03/28 03:18:54;;;;;;;3.72;1.73;;;;;;;;;;5104637;28;20023;-76
2023/03/28 03:21:22;;;;;;;4.63;1.52;;;;;;;;;;5116914;28;20044;-76
2023/03/28 03:23:47;;;;;;;8.50;1.67;;;;;;;;;;5117106;28;20036;-76
2023/03/28 03:26:13;;;;;;;10.95;2.15;;;;;;;;;;5113981;28;20035;-76
2023/03/28 03:28:38;;;;;;;6.18;1.88;;;;;;;;;;5107200;27;20072;-77
2023/03/28 03:31:04;;;;;;;9.40;1.92;;;;;;;;;;5116280;27;20112;-77
2023/03/28 03:33:29;;;;;;;5.03;1.60;;;;;;;;;;5116661;28;20092;-77
2023/03/28 03:35:55;;;;;;;6.65;1.73;;;;;;;;;;5115267;27;20028;-77
2023/03/28 03:38:20;;;;;;;10.05;2.10;;;;;;;;;;5116468;28;20036;-77
2023/03/28 03:40:46;;;;;;;6.30;2.05;;;;;;;;;;5116854;28;20023;-76
2023/03/28 03:43:11;;;;;;;4.05;1.80;;;;;;;;;;5116102;28;20035;-77
2023/03/28 03:45:39;;;;;;;7.55;1.77;;;;;;;;;;5110252;28;20036;-77
2023/03/28 03:48:04;;;;;;;6.25;1.85;;;;;;;;;;5098323;28;20368;-76
2023/03/28 03:50:30;;;;;;;6.78;2.42;;;;;;;;;;5113116;28;20058;-76
2023/03/28 03:52:56;;;;;;;9.18;2.08;;;;;;;;;;5114689;28;20039;-76
2023/03/28 03:55:22;;;;;;;12.60;1.85;;;;;;;;;;5111735;28;20051;-76
2023/03/28 03:57:47;;;;;;;12.30;2.20;;;;;;;;;;5116211;28;20391;-77
2023/03/28 04:00:13;;;;;;;6.88;1.65;;;;;;;;;;5116001;28;20035;-76
2023/03/28 04:02:39;;;;;;;7.90;1.83;;;;;;;;;;5115457;28;20031;-77
2023/03/28 04:05:07;;;;;;;5.05;1.60;;;;;;;;;;5116331;27;20039;-76
2023/03/28 04:07:33;;;;;;;7.00;1.77;;;;;;;;;;5115732;28;20099;-77
2023/03/28 04:09:58;;;;;;;11.95;2.30;;;;;;;;;;5105109;28;20028;-77
2023/03/28 04:12:23;;;;;;;5.60;1.92;;;;;;;;;;5114980;28;20118;-76
2023/03/28 04:14:49;;;;;;;5.15;1.75;;;;;;;;;;5101744;28;20047;-76
2023/03/28 04:17:15;;;;;;;10.23;2.75;;;;;;;;;;5110185;28;20028;-77
2023/03/28 04:19:40;;;;;;;11.38;1.90;;;;;;;;;;5112775;28;20041;-78
2023/03/28 04:22:11;;;;;;;7.30;1.65;;;;;;;;;;5108242;28;20119;-78
2023/03/28 04:24:40;;;;;;;8.32;1.83;;;;;;;;;;5114446;28;20032;-77
2023/03/28 04:27:08;;;;;;;7.45;1.52;;;;;;;;;;5113362;28;20072;-76
2023/03/28 04:29:35;;;;;;;3.90;1.75;;;;;;;;;;5103019;28;20478;-76
2023/03/28 04:32:04;;;;;;;8.02;1.70;;;;;;;;;;5102489;28;20035;-77
2023/03/28 04:34:30;;;;;;;7.88;1.83;;;;;;;;;;5116002;28;20039;-76
2023/03/28 04:37:00;;;;;;;5.85;1.80;;;;;;;;;;5112298;28;20039;-76
2023/03/28 04:39:28;;;;;;;8.90;1.90;;;;;;;;;;5115886;28;20043;-76
2023/03/28 04:41:54;;;;;;;9.88;1.90;;;;;;;;;;5114190;28;20035;-76
2023/03/28 04:44:21;;;;;;;5.38;2.17;;;;;;;;;;5103335;27;20376;-77
2023/03/28 04:46:47;;;;;;;11.02;2.85;;;;;;;;;;5101410;28;20035;-77
2023/03/28 04:49:13;;;;;;;9.70;2.08;;;;;;;;;;5114797;28;20040;-76
2023/03/28 04:51:39;;;;;;;3.97;2.38;;;;;;;;;;5114221;28;20103;-77
2023/03/28 04:54:04;;;;;;;11.77;2.22;;;;;;;;;;5108295;28;20103;-76
2023/03/28 04:56:30;;;;;;;6.00;1.38;;;;;;;;;;5113673;28;20416;-77
2023/03/28 04:58:56;;;;;;;10.60;2.10;;;;;;;;;;5101295;28;20605;-77
2023/03/28 05:01:24;;;;;;;10.00;1.90;;;;;;;;;;5113816;28;20028;-77
2023/03/28 05:03:50;;;;;;;8.80;1.80;;;;;;;;;;5102984;28;20040;-76
2023/03/28 05:06:15;;;;;;;8.35;1.80;;;;;;;;;;5113897;28;20058;-77
2023/03/28 05:08:42;;;;;;;9.63;2.20;;;;;;;;;;5114715;28;20037;-76
2023/03/28 05:11:08;;;;;;;12.23;2.10;;;;;;;;;;5114557;28;20071;-76
2023/03/28 05:13:34;;;;;;;8.85;2.25;;;;;;;;;;5114203;28;20071;-76
2023/03/28 05:16:00;;;;;;;8.38;2.10;;;;;;;;;;5112952;28;20536;-76
2023/03/28 05:18:25;;;;;;;10.98;1.88;;;;;;;;;;5111704;28;20036;-76
2023/03/28 05:20:51;;;;;;;14.98;2.42;;;;;;;;;;5113169;28;20044;-76
2023/03/28 05:23:16;;;;;;;8.80;1.90;;;;;;;;;;5114724;28;20027;-77
2023/03/28 05:25:42;;;;;;;10.80;2.05;;;;;;;;;;5114218;28;20482;-76
2023/03/28 05:28:07;;;;;;;7.00;1.70;;;;;;;;;;5109779;28;20040;-77
2023/03/28 05:30:33;;;;;;;6.40;1.73;;;;;;;;;;5108629;28;20356;-76
2023/03/28 05:32:59;;;;;;;6.43;2.00;;;;;;;;;;5108674;28;20031;-77
2023/03/28 05:35:24;;;;;;;7.35;2.58;;;;;;;;;;5110946;28;20036;-76
2023/03/28 05:37:50;;;;;;;3.88;1.80;;;;;;;;;;5106485;28;20031;-76
2023/03/28 05:40:15;;;;;;;8.82;1.83;;;;;;;;;;5114620;28;20043;-77
2023/03/28 05:42:41;;;;;;;11.40;2.22;;;;;;;;;;5113809;28;20046;-77
2023/03/28 05:45:08;;;;;;;7.13;2.05;;;;;;;;;;5114306;28;20055;-77
2023/03/28 05:47:34;;;;;;;10.98;2.22;;;;;;;;;;5112807;28;20107;-77
2023/03/28 05:50:00;;;;;;;9.68;2.40;;;;;;;;;;5114133;28;20035;-77
2023/03/28 05:52:26;;;;;;;9.27;1.70;;;;;;;;;;5097769;28;20040;-77
2023/03/28 05:54:51;;;;;;;5.93;2.05;;;;;;;;;;5106102;28;20077;-77
2023/03/28 05:57:18;;;;;;;10.73;2.17;;;;;;;;;;5113691;28;20047;-77
2023/03/28 05:59:43;;;;;;;4.18;1.70;;;;;;;;;;5106461;28;20027;-77
2023/03/28 06:02:11;;;;;;;10.25;2.53;;;;;;;;;;5112814;28;20395;-77
2023/03/28 06:04:37;;;;;;;8.70;2.15;;;;;;;;;;5106954;28;20452;-77
2023/03/28 06:07:04;;;;;;;9.93;2.30;;;;;;;;;;5110919;28;20106;-77
2023/03/28 06:09:30;;;;;;;8.73;2.60;;;;;;;;;;5111913;28;20043;-77
2023/03/28 06:11:58;;;;;;;10.35;2.78;;;;;;;;;;5111201;28;20098;-77
2023/03/28 06:14:24;;;;;;;7.15;2.20;;;;;;;;;;5106586;28;20031;-77
2023/03/28 06:16:49;;;;;;;8.80;2.50;;;;;;;;;;5108754;28;20092;-77
2023/03/28 06:19:15;;;;;;;13.68;2.42;;;;;;;;;;5108136;28;20032;-77
2023/03/28 06:21:40;;;;;;;14.35;2.33;;;;;;;;;;5113288;28;20085;-77
2023/03/28 06:24:06;;;;;;;13.27;2.45;;;;;;;;;;5110207;28;20035;-77
2023/03/28 06:26:31;;;;;;;6.50;2.20;;;;;;;;;;5112785;28;20043;-78
2023/03/28 06:28:57;;;;;;;10.02;2.78;;;;;;;;;;5110285;28;20525;-78
2023/03/28 06:31:22;;;;;;;5.53;2.13;;;;;;;;;;5113746;28;20533;-77
2023/03/28 06:33:48;;;;;;;11.25;2.67;;;;;;;;;;5107537;28;20059;-78
2023/03/28 06:36:13;;;;;;;25.33;5.70;;;;;;;;;;5113148;28;20046;-78
2023/03/28 06:38:38;;;;;;;13.52;4.20;;;;;;;;;;5112691;28;20051;-78
2023/03/28 06:41:04;;;;;;;12.13;3.28;;;;;;;;;;5113320;28;20078;-77
2023/03/28 06:43:30;;;;;;;8.52;2.47;;;;;;;;;;5108103;28;20059;-78
2023/03/28 06:45:56;;;;;;;7.20;2.35;;;;;;;;;;5113585;28;20039;-78
2023/03/28 06:48:22;;;;;;;15.43;2.85;;;;;;;;;;5111832;28;20108;-78
2023/03/28 06:50:51;;;;;;;16.60;2.97;;;;;;;;;;5108129;28;20032;-77
2023/03/28 06:53:16;;;;;;;6.95;2.85;;;;;;;;;;5107782;28;20509;-78
2023/03/28 06:55:42;;;;;;;13.15;3.95;;;;;;;;;;5106614;28;20044;-78
2023/03/28 06:58:07;;;;;;;8.98;3.22;;;;;;;;;;5106877;28;20028;-78
2023/03/28 07:00:33;;;;;;;10.77;2.92;;;;;;;;;;5110928;28;20400;-77
2023/03/28 07:02:59;;;;;;;9.48;2.30;;;;;;;;;;5105952;28;20062;-77
2023/03/28 07:05:24;;;;;;;16.10;2.78;;;;;;;;;;5109252;28;20023;-77
2023/03/28 07:07:50;;;;;;;15.07;2.78;;;;;;;;;;5113127;28;20047;-77
2023/03/28 07:10:15;;;;;;;13.02;2.83;;;;;;;;;;5108441;28;20036;-78
2023/03/28 07:12:40;;;;;;;16.45;2.83;;;;;;;;;;5113383;28;20114;-77
2023/03/28 07:15:07;;;;;;;7.75;3.30;;;;;;;;;;5111326;28;20046;-78
2023/03/28 07:17:32;;;;;;;10.93;3.28;;;;;;;;;;5111762;28;20032;-77
2023/03/28 07:19:57;;;;;;;8.95;2.90;;;;;;;;;;5098785;28;20084;-78
2023/03/28 07:22:23;;;;;;;7.80;2.40;;;;;;;;;;5101290;28;20040;-77
2023/03/28 07:24:48;;;;;;;11.82;2.88;;;;;;;;;;5112991;28;20364;-77
2023/03/28 07:27:14;;;;;;;13.15;3.10;;;;;;;;;;5113189;28;20034;-77
2023/03/28 07:29:39;;;;;;;12.88;3.45;;;;;;;;;;5103598;28;20395;-76
2023/03/28 07:32:05;;;;;;;10.25;3.67;;;;;;;;;;5111312;28;20039;-77
2023/03/28 07:34:30;;;;;;;15.40;3.17;;;;;;;;;;5105978;28;20027;-77
2023/03/28 07:36:56;;;;;;;19.23;3.55;;;;;;;;;;5111759;28;20044;-77
2023/03/28 07:39:21;;;;;;;10.48;3.20;;;;;;;;;;5108545;28;20039;-79
2023/03/28 07:41:47;;;;;;;19.05;3.58;;;;;;;;;;5087213;28;20027;-76
2023/03/28 07:44:12;;;;;;;14.88;2.78;;;;;;;;;;5113193;28;20043;-76
2023/03/28 07:46:38;;;;;;;8.75;3.35;;;;;;;;;;5112934;28;20058;-76
2023/03/28 07:49:04;;;;;;;10.90;3.47;;;;;;;;;;5099692;28;20036;-78
2023/03/28 07:51:29;;;;;;;10.52;2.58;;;;;;;;;;5110782;28;20447;-79
2023/03/28 07:53:55;;;;;;;10.70;2.90;;;;;;;;;;5096801;28;20115;-77
2023/03/28 07:56:21;;;;;;;13.55;2.90;;;;;;;;;;5112434;28;20390;-77
2023/03/28 07:58:47;;;;;;;12.30;3.05;;;;;;;;;;5098078;28;20039;-77
2023/03/28 08:01:17;;;;;;;12.63;3.25;;;;;;;;;;5103632;28;20063;-77
2023/03/28 08:03:43;;;;;;;11.18;3.08;;;;;;;;;;5109762;28;20088;-78
2023/03/28 08:06:09;;;;;;;9.75;2.90;;;;;;;;;;5098253;28;20524;-78
2023/03/28 08:08:35;;;;;;;13.13;3.78;;;;;;;;;;5110150;28;20076;-77
2023/03/28 08:11:00;;;;;;;9.05;2.60;;;;;;;;;;5111199;28;20043;-77
2023/03/28 08:13:26;;;;;;;9.90;3.42;;;;;;;;;;5101966;28;20031;-77
2023/03/28 08:15:53;;;;;;;14.23;3.20;;;;;;;;;;5108783;28;20494;-76
2023/03/28 08:18:23;;;;;;;10.90;2.70;;;;;;;;;;5106681;27;20028;-77
2023/03/28 08:20:50;;;;;;;15.80;3.22;;;;;;;;;;5105253;28;20067;-77
2023/03/28 08:23:16;;;;;;;10.38;2.83;;;;;;;;;;5105784;28;20062;-77
2023/03/28 08:25:43;;;;;;;10.43;3.30;;;;;;;;;;5103308;28;20063;-77
2023/03/28 08:28:10;;;;;;;15.15;3.03;;;;;;;;;;5091730;28;20051;-79
2023/03/28 08:30:36;;;;;;;8.02;2.75;;;;;;;;;;5101980;28;20035;-77
2023/03/28 08:33:03;;;;;;;8.57;2.78;;;;;;;;;;5109008;28;20462;-78
2023/03/28 08:35:31;;;;;;;11.35;2.30;;;;;;;;;;5112297;28;20040;-76
2023/03/28 08:37:57;;;;;;;10.88;2.78;;;;;;;;;;5110486;28;20446;-77
2023/03/28 08:40:25;;;;;;;7.55;1.90;;;;;;;;;;5111905;28;20044;-76
2023/03/28 08:42:50;;;;;;;4.93;1.33;;;;;;;;;;5093345;28;20053;-77
2023/03/28 08:45:21;;;;;;;5.32;1.20;;;;;;;;;;5111780;28;20382;-77
2023/03/28 08:47:56;;;;;;;3.42;1.38;;;;;;;;;;5111281;28;20040;-77
2023/03/28 08:50:31;;;;;;;5.22;1.27;;;;;;;;;;5111668;28;20044;-77
2023/03/28 08:52:57;;;;;;;4.20;1.05;;;;;;;;;;5090178;28;20034;-77
2023/03/28 08:55:40;;;;;;;3.83;1.15;;;;;;;;;;5094781;28;20043;-78
2023/03/28 08:58:13;;;;;;;2.92;0.73;;;;;;;;;;5109402;28;20438;-78
2023/03/28 09:00:39;;;;;;;2.80;1.10;;;;;;;;;;5110239;28;20089;-77
2023/03/28 09:03:11;;;;;;;5.68;1.40;;;;;;;;;;5111151;28;20089;-77
2023/03/28 09:05:56;;;;;;;2.90;1.40;;;;;;;;;;5110229;28;20031;-77
2023/03/28 09:09:00;;;;;;;3.53;1.20;;;;;;;;;;5105579;28;20118;-78
2023/03/28 09:11:26;;;;;;;2.90;1.30;;;;;;;;;;5097759;28;20050;-79
2023/03/28 09:14:02;;;;;;;3.38;0.95;;;;;;;;;;5111465;28;20395;-78
2023/03/28 09:16:42;;;;;;;4.00;1.27;;;;;;;;;;5099172;28;20443;-79
2023/03/28 09:19:20;;;;;;;4.38;1.02;;;;;;;;;;5108117;28;20078;-78
2023/03/28 09:21:54;;;;;;;3.25;1.00;;;;;;;;;;5107872;28;20031;-78
2023/03/28 09:24:29;;;;;;;4.82;1.10;;;;;;;;;;5109478;28;20039;-78
2023/03/28 09:27:05;;;;;;;2.90;0.98;;;;;;;;;;5109998;28;20126;-78
2023/03/28 09:29:32;;;;;;;4.15;1.10;;;;;;;;;;5090500;28;20036;-78
2023/03/28 09:32:04;;;;;;;2.08;0.93;;;;;;;;;;5107561;28;20047;-78
2023/03/28 09:34:39;;;;;;;4.28;1.50;;;;;;;;;;5106442;28;20035;-78
2023/03/28 09:37:26;;;;;;;3.35;1.02;;;;;;;;;;5097822;28;20084;-78
2023/03/28 09:39:54;;;;;;;2.55;1.02;;;;;;;;;;5094366;28;20107;-78
2023/03/28 09:42:30;;;;;;;4.32;1.15;;;;;;;;;;5108004;28;20032;-78
2023/03/28 09:45:29;;;;;;;3.08;1.27;;;;;;;;;;5109718;28;20057;-79
2023/03/28 09:47:55;;;;;;;8.32;1.70;;;;;;;;;;5102186;28;20050;-79
2023/03/28 09:50:21;;;;;;;2.90;1.35;;;;;;;;;;5109717;28;20074;-78
2023/03/28 09:52:49;;;;;;;4.30;1.10;;;;;;;;;;5108161;28;20059;-78
2023/03/28 09:55:17;;;;;;;3.15;1.00;;;;;;;;;;5110168;28;20482;-79
2023/03/28 09:58:08;;;;;;;4.22;1.30;;;;;;;;;;5110533;28;20032;-78
2023/03/28 10:00:42;;;;;;;5.45;1.42;;;;;;;;;;5087292;28;20064;-78
2023/03/28 10:03:36;;;;;;;;;;;;;;;;;;5101527;28;20028;-78
2023/03/28 10:06:29;;;;;;;6.20;1.30;;;;;;;;;;5085237;28;19919;-78
2023/03/28 10:09:27;;;;;;;4.72;1.30;;;;;;;;;;5105292;28;20031;-78
2023/03/28 10:12:08;;;;;;;3.10;1.08;;;;;;;;;;5108873;28;20039;-78
2023/03/28 10:14:39;;;;;;;5.07;0.93;;;;;;;;;;5105642;28;20023;-79
2023/03/28 10:17:30;;;;;;;2.85;1.17;;;;;;;;;;5108759;28;20126;-78
2023/03/28 10:20:02;;;;;;;4.82;1.55;;;;;;;;;;5094119;28;20398;-78
2023/03/28 10:22:31;;;;;;;4.63;1.25;;;;;;;;;;5105996;28;20947;-78
2023/03/28 10:24:57;;;;;;;4.20;1.20;;;;;;;;;;5094754;28;20132;-78
2023/03/28 10:27:31;;;;;;;4.55;1.42;;;;;;;;;;5108713;28;20429;-78
2023/03/28 10:29:57;;;;;;;;;;;;;;;;;;5109253;28;20036;-78
2023/03/28 10:32:25;;;;;;;4.82;1.10;;;;;;;;;;5107920;28;19916;-78
2023/03/28 10:35:05;;;;;;;4.75;1.77;;;;;;;;;;5106052;28;20067;-77
2023/03/28 10:37:33;;;;;;;6.03;1.25;;;;;;;;;;5108887;28;20039;-78
2023/03/28 10:40:00;;;;;;;3.80;1.55;;;;;;;;;;5107966;28;20034;-78
2023/03/28 10:42:26;;;;;;;4.28;1.65;;;;;;;;;;5094566;28;20032;-77
2023/03/28 10:45:03;;;;;;;12.30;2.42;;;;;;;;;;5107816;28;20140;-77
2023/03/28 10:47:30;;;;;;;5.60;1.38;;;;;;;;;;5103685;28;20046;-78
2023/03/28 10:49:55;;;;;;;8.70;1.70;;;;;;;;;;5107465;28;20114;-78
2023/03/28 10:52:47;;;;;;;6.55;1.70;;;;;;;;;;5108283;28;20107;-79
2023/03/28 10:55:16;;;;;;;4.35;1.50;;;;;;;;;;5108318;28;20079;-76
2023/03/28 10:57:57;;;;;;;4.78;1.60;;;;;;;;;;5107391;28;20029;-77
2023/03/28 11:00:26;;;;;;;7.30;2.03;;;;;;;;;;5103885;28;20039;-77
2023/03/28 11:02:55;;;;;;;10.45;1.75;;;;;;;;;;5108738;28;20088;-78
2023/03/28 11:05:44;;;;;;;5.70;2.08;;;;;;;;;;5107612;28;20043;-76
2023/03/28 11:08:23;;;;;;;4.53;1.48;;;;;;;;;;5104874;28;20044;-77
2023/03/28 11:10:54;;;;;;;7.10;1.90;;;;;;;;;;5108045;28;20506;-76
2023/03/28 11:13:36;;;;;;;7.75;1.65;;;;;;;;;;5108120;28;20554;-77
2023/03/28 11:16:20;;;;;;;13.05;1.85;;;;;;;;;;5093564;28;20044;-77
2023/03/28 11:19:01;;;;;;;8.38;2.15;;;;;;;;;;5111042;28;20125;-76
2023/03/28 11:21:33;;;;;;;6.80;2.05;;;;;;;;;;5111117;28;20153;-76
2023/03/28 11:24:08;;;;;;;11.35;2.00;;;;;;;;;;5108507;28;20118;-76
2023/03/28 11:26:55;;;;;;;8.55;1.92;;;;;;;;;;5109104;28;20076;-77
2023/03/28 11:29:44;;;;;;;5.18;1.55;;;;;;;;;;5092296;28;20050;-76
2023/03/28 11:32:22;;;;;;;9.27;1.95;;;;;;;;;;5107306;28;20039;-77
2023/03/28 11:35:13;;;;;;;9.60;1.70;;;;;;;;;;5106657;28;20060;-77
2023/03/28 11:38:01;;;;;;;6.32;1.48;;;;;;;;;;5110536;28;20443;-76
2023/03/28 11:40:35;;;;;;;14.70;1.90;;;;;;;;;;5098915;28;20040;-76
2023/03/28 11:43:04;;;;;;;12.02;1.73;;;;;;;;;;5111795;28;20046;-76
2023/03/28 11:45:51;;;;;;;7.68;1.58;;;;;;;;;;5110885;28;20096;-77
2023/03/28 11:48:17;;;;;;;4.55;1.40;;;;;;;;;;5101589;28;20572;-77
2023/03/28 11:51:21;;;;;;;4.60;1.30;;;;;;;;;;5112145;28;20494;-76
2023/03/28 11:53:46;;;;;;;7.18;1.70;;;;;;;;;;5107417;28;20479;-76
2023/03/28 11:56:52;;;;;;;8.15;1.75;;;;;;;;;;5112009;28;20104;-77
2023/03/28 11:59:26;;;;;;;7.18;1.90;;;;;;;;;;5105693;28;20402;-77
2023/03/28 12:01:55;;;;;;;8.32;1.70;;;;;;;;;;5108975;28;20497;-77
2023/03/28 12:04:28;;;;;;;5.80;1.35;;;;;;;;;;5102746;28;20039;-78
2023/03/28 12:07:05;;;;;;;6.78;1.55;;;;;;;;;;5097507;28;20127;-78
2023/03/28 12:09:59;;;;;;;7.63;1.65;;;;;;;;;;5101965;28;20047;-78
2023/03/28 12:12:31;;;;;;;9.88;1.55;;;;;;;;;;5099869;28;20455;-78
2023/03/28 12:15:16;;;;;;;3.80;1.10;;;;;;;;;;5108283;28;20040;-79
2023/03/28 12:17:47;;;;;;;8.63;1.45;;;;;;;;;;5107949;28;20043;-78
2023/03/28 12:20:28;;;;;;;5.97;1.40;;;;;;;;;;5089295;28;20032;-78
2023/03/28 12:23:02;;;;;;;4.47;1.42;;;;;;;;;;5100079;28;20506;-78
2023/03/28 12:25:32;;;;;;;4.28;1.38;;;;;;;;;;5106689;28;20032;-78
2023/03/28 12:28:36;;;;;;;4.72;1.38;;;;;;;;;;5111132;28;20395;-77
2023/03/28 12:31:18;;;;;;;7.97;1.48;;;;;;;;;;5104872;28;20050;-78
2023/03/28 12:34:02;;;;;;;15.35;1.90;;;;;;;;;;5094099;28;20043;-77
2023/03/28 12:36:47;;;;;;;4.85;1.25;;;;;;;;;;5109877;28;20036;-78
2023/03/28 12:39:37;;;;;;;5.43;1.70;;;;;;;;;;5108138;28;20100;-77
2023/03/28 12:42:08;;;;;;;6.82;1.63;;;;;;;;;;5107124;28;20399;-78
2023/03/28 12:44:54;;;;;;;6.93;1.65;;;;;;;;;;5106200;28;20428;-77
2023/03/28 12:47:27;;;;;;;4.65;1.73;;;;;;;;;;5097592;28;20482;-78
2023/03/28 12:49:58;;;;;;;5.95;1.70;;;;;;;;;;5087945;28;20458;-77
2023/03/28 12:52:30;;;;;;;5.65;1.42;;;;;;;;;;5105592;28;20031;-78
2023/03/28 12:54:56;;;;;;;6.13;1.17;;;;;;;;;;5107209;28;20493;-78
2023/03/28 12:57:40;;;;;;;8.80;1.25;;;;;;;;;;5099002;28;20074;-77
2023/03/28 13:00:38;;;;;;;9.40;1.60;;;;;;;;;;5107965;28;20062;-77
2023/03/28 13:03:04;;;;;;;5.32;1.55;;;;;;;;;;5106359;28;20452;-77
2023/03/28 13:05:45;;;;;;;3.78;1.33;;;;;;;;;;5109248;28;20134;-77
2023/03/28 13:08:28;;;;;;;9.45;1.33;;;;;;;;;;5110122;27;20043;-77
2023/03/28 13:11:32;;;;;;;2.70;1.10;;;;;;;;;;5110391;28;20043;-78
2023/03/28 13:14:03;;;;;;;4.80;1.17;;;;;;;;;;5070271;28;20058;-77
2023/03/28 13:17:22;;;;;;;5.82;1.40;;;;;;;;;;5110152;28;20487;-77
2023/03/28 13:20:13;;;;;;;5.65;1.40;;;;;;;;;;5058435;28;20080;-77
2023/03/28 13:22:43;;;;;;;3.90;0.90;;;;;;;;;;5055635;28;20551;-77
2023/03/28 13:25:26;;;;;;;6.55;1.30;;;;;;;;;;5077190;28;20043;-77
2023/03/28 13:28:00;;;;;;;7.53;1.48;;;;;;;;;;5100240;28;20043;-77
2023/03/28 13:30:28;;;;;;;3.85;1.20;;;;;;;;;;5108082;28;20128;-77
2023/03/28 13:33:02;;;;;;;8.30;1.55;;;;;;;;;;5108473;28;20399;-77
2023/03/28 13:35:57;;;;;;;4.03;1.27;;;;;;;;;;5108973;28;20078;-77
2023/03/28 13:38:28;;;;;;;6.18;1.48;;;;;;;;;;5078380;28;20494;-77
2023/03/28 13:41:11;;;;;;;5.55;1.40;;;;;;;;;;5109165;28;20483;-78
2023/03/28 13:43:38;;;;;;;6.82;1.50;;;;;;;;;;5102496;28;20039;-78
2023/03/28 13:46:15;;;;;;;6.18;1.30;;;;;;;;;;5107152;28;20093;-77
2023/03/28 13:48:51;;;;;;;10.18;2.05;;;;;;;;;;5110507;28;20050;-77
2023/03/28 13:51:23;;;;;;;7.85;1.40;;;;;;;;;;5109021;28;20044;-78
2023/03/28 13:53:49;;;;;;;6.72;1.77;;;;;;;;;;5109024;28;20104;-78
2023/03/28 13:56:18;;;;;;;7.10;1.80;;;;;;;;;;5110691;28;20047;-77
2023/03/28 13:58:46;;;;;;;4.80;1.30;;;;;;;;;;5108428;28;20058;-78
2023/03/28 14:01:24;;;;;;;7.10;1.30;;;;;;;;;;5101157;28;20075;-77
2023/03/28 14:03:50;;;;;;;9.65;1.83;;;;;;;;;;5110379;28;20040;-77
2023/03/28 14:06:24;;;;;;;9.18;1.27;;;;;;;;;;5108000;28;20939;-78
2023/03/28 14:08:51;;;;;;;;;;;;;;;;;;5109013;28;20043;-77
2023/03/28 14:11:31;;;;;;;10.52;1.67;;;;;;;;;;5108855;28;19926;-77
2023/03/28 14:14:35;;;;;;;6.47;2.50;;;;;;;;;;5088142;28;20039;-77
2023/03/28 14:17:04;;;;;;;4.22;1.23;;;;;;;;;;5101719;28;20054;-77
2023/03/28 14:19:45;;;;;;;8.07;1.83;;;;;;;;;;5102991;28;20050;-78
2023/03/28 14:22:22;;;;;;;6.15;1.45;;;;;;;;;;5096078;28;20080;-77
2023/03/28 14:24:50;;;;;;;3.42;1.10;;;;;;;;;;5107965;28;20043;-77
2023/03/28 14:27:39;;;;;;;6.53;1.73;;;;;;;;;;5108880;28;20043;-78
2023/03/28 14:30:37;;;;;;;7.10;1.90;;;;;;;;;;5095063;28;20032;-78
2023/03/28 14:33:17;;;;;;;3.58;1.77;;;;;;;;;;5076473;28;20055;-77
2023/03/28 14:35:44;;;;;;;8.63;1.63;;;;;;;;;;5107733;28;20036;-77
2023/03/28 14:38:14;;;;;;;9.93;1.67;;;;;;;;;;5107819;28;20398;-77
2023/03/28 14:40:42;;;;;;;8.00;2.00;;;;;;;;;;5103048;28;20119;-78
2023/03/28 14:43:14;;;;;;;7.93;1.67;;;;;;;;;;5107143;28;20941;-77
2023/03/28 14:45:42;;;;;;;10.05;1.80;;;;;;;;;;5088942;28;20416;-77
2023/03/28 14:48:12;;;;;;;15.23;2.13;;;;;;;;;;5100160;28;20360;-78
2023/03/28 14:50:38;;;;;;;10.07;1.90;;;;;;;;;;5106624;28;20039;-78
2023/03/28 14:53:06;;;;;;;8.35;2.08;;;;;;;;;;5109140;28;20031;-76
2023/03/28 14:55:33;;;;;;;11.07;1.95;;;;;;;;;;5113181;28;20134;-77
2023/03/28 14:57:59;;;;;;;13.05;1.90;;;;;;;;;;5111732;28;20104;-77
2023/03/28 15:00:37;;;;;;;7.43;1.58;;;;;;;;;;5112248;28;20413;-77
2023/03/28 15:03:17;;;;;;;8.80;1.45;;;;;;;;;;5110334;28;20043;-77
2023/03/28 15:05:44;;;;;;;5.13;1.30;;;;;;;;;;5108473;28;20027;-77
2023/03/28 15:08:36;;;;;;;7.95;1.73;;;;;;;;;;5112266;28;20584;-77
2023/03/28 15:11:19;;;;;;;4.13;1.55;;;;;;;;;;5107737;28;20398;-77